createdAt,value
2022-10-29T00:00:04.179Z,97.99
2022-10-29T00:01:04.148Z,98.30
2022-10-29T00:02:04.270Z,98.39
2022-10-29T00:03:04.242Z,98.34
2022-10-29T00:04:04.086Z,98.34
2022-10-29T00:05:04.087Z,98.54
2022-10-29T00:06:04.114Z,98.75
2022-10-29T00:07:04.060Z,99.16
2022-10-29T00:08:04.058Z,99.26
2022-10-29T00:09:04.065Z,99.81
2022-10-29T00:10:04.024Z,99.99
2022-10-29T00:11:04.046Z,99.61
2022-10-29T00:12:04.002Z,99.99
2022-10-29T00:13:04.014Z,99.81
2022-10-29T00:14:03.976Z,99.96
2022-10-29T00:15:03.992Z,99.99
2022-10-29T00:16:03.976Z,99.99
2022-10-29T00:17:03.951Z,99.99
2022-10-29T00:18:03.959Z,99.99
2022-10-29T00:19:03.964Z,99.99
2022-10-29T00:20:04.049Z,99.99
2022-10-29T00:21:03.921Z,99.99
2022-10-29T00:22:03.892Z,99.99
2022-10-29T00:23:03.885Z,99.99
2022-10-29T00:24:03.878Z,99.99
2022-10-29T00:26:41.525Z,99.99
2022-10-29T00:27:41.492Z,99.99
2022-10-29T00:28:41.493Z,99.99
2022-10-29T00:29:41.471Z,99.99
2022-10-29T00:30:41.473Z,99.99
2022-10-29T00:31:41.584Z,99.99
2022-10-29T00:32:41.469Z,99.99
2022-10-29T00:33:41.435Z,99.99
2022-10-29T00:34:41.490Z,99.99
2022-10-29T00:35:41.442Z,99.99
2022-10-29T00:36:41.425Z,99.99
2022-10-29T00:37:41.434Z,99.99
2022-10-29T00:38:41.387Z,99.99
2022-10-29T00:39:41.369Z,99.99
2022-10-29T00:40:41.418Z,99.99
2022-10-29T00:41:41.362Z,99.99
2022-10-29T00:42:41.346Z,99.99
2022-10-29T00:43:41.337Z,99.81
2022-10-29T00:44:41.314Z,99.91
2022-10-29T00:45:41.309Z,99.71
2022-10-29T00:46:41.354Z,99.99
2022-10-29T00:47:41.304Z,99.99
2022-10-29T00:48:41.315Z,99.99
2022-10-29T00:49:41.260Z,99.99
2022-10-29T00:50:41.251Z,99.61
2022-10-29T00:51:41.236Z,99.99
2022-10-29T00:52:41.295Z,99.91
2022-10-29T00:53:41.218Z,99.91
2022-10-29T00:54:41.230Z,99.71
2022-10-29T00:55:41.204Z,99.91
2022-10-29T00:56:41.187Z,99.99
2022-10-29T00:57:41.177Z,99.99
2022-10-29T00:58:41.163Z,99.99
2022-10-29T00:59:41.244Z,99.99
2022-10-29T01:00:41.159Z,99.99
2022-10-29T01:01:41.242Z,99.86
2022-10-29T01:02:41.251Z,99.99
2022-10-29T01:03:41.124Z,99.99
2022-10-29T01:04:41.127Z,98.39
2022-10-29T01:05:41.086Z,98.39
2022-10-29T01:06:41.125Z,99.41
2022-10-29T01:07:41.135Z,99.30
2022-10-29T01:08:41.082Z,99.00
2022-10-29T01:09:41.094Z,99.30
2022-10-29T01:10:41.050Z,99.10
2022-10-29T01:11:41.043Z,99.10
2022-10-29T01:12:41.017Z,99.20
2022-10-29T01:13:41.045Z,99.36
2022-10-29T01:14:41.017Z,99.56
2022-10-29T01:15:40.994Z,99.87
2022-10-29T01:16:40.984Z,98.70
2022-10-29T01:17:40.955Z,99.11
2022-10-29T01:18:41.035Z,98.50
2022-10-29T01:19:40.960Z,91.80
2022-10-29T01:20:40.923Z,89.37
2022-10-29T01:21:40.946Z,90.45
2022-10-29T01:22:40.930Z,87.57
2022-10-29T01:23:40.902Z,89.45
2022-10-29T01:24:40.925Z,89.35
2022-10-29T01:25:40.895Z,87.52
2022-10-29T01:26:40.864Z,85.86
2022-10-29T01:27:40.856Z,85.46
2022-10-29T01:28:40.881Z,87.59
2022-10-29T01:29:40.839Z,87.89
2022-10-29T01:30:40.814Z,89.11
2022-10-29T01:31:40.848Z,90.51
2022-10-29T01:32:40.810Z,89.35
2022-10-29T01:33:40.786Z,90.26
2022-10-29T01:34:40.846Z,90.51
2022-10-29T01:35:40.800Z,90.71
2022-10-29T01:36:40.754Z,91.12
2022-10-29T01:37:40.756Z,92.07
2022-10-29T01:38:40.781Z,92.58
2022-10-29T01:39:40.741Z,92.48
2022-10-29T01:40:40.742Z,92.93
2022-10-29T01:41:40.706Z,93.13
2022-10-29T01:42:40.685Z,93.44
2022-10-29T01:43:40.692Z,93.38
2022-10-29T01:44:40.663Z,93.48
2022-10-29T01:45:40.682Z,93.59
2022-10-29T01:46:40.686Z,93.89
2022-10-29T01:47:40.635Z,94.09
2022-10-29T01:48:40.631Z,94.60
2022-10-29T01:49:40.623Z,94.85
2022-10-29T01:50:40.636Z,95.66
2022-10-29T01:51:40.597Z,95.66
2022-10-29T01:52:40.611Z,96.42
2022-10-29T01:53:40.576Z,96.62
2022-10-29T01:54:40.568Z,96.83
2022-10-29T01:55:40.579Z,96.62
2022-10-29T01:56:40.554Z,97.17
2022-10-29T01:57:40.532Z,97.28
2022-10-29T01:58:40.515Z,97.48
2022-10-29T01:59:54.956Z,97.12
2022-10-29T02:00:41.626Z,98.24
2022-10-29T02:05:52.593Z,97.17
2022-10-29T02:06:43.838Z,96.97
2022-10-29T02:07:43.806Z,97.28
2022-10-29T02:08:43.824Z,98.39
2022-10-29T02:09:43.795Z,97.38
2022-10-29T02:10:43.812Z,97.89
2022-10-29T02:11:43.830Z,98.60
2022-10-29T02:12:43.753Z,98.19
2022-10-29T02:13:43.739Z,98.30
2022-10-29T02:14:43.827Z,98.19
2022-10-29T02:15:43.724Z,98.50
2022-10-29T02:16:43.728Z,98.60
2022-10-29T02:17:43.707Z,98.19
2022-10-29T02:18:43.693Z,98.30
2022-10-29T02:19:43.726Z,98.19
2022-10-29T02:20:43.758Z,98.39
2022-10-29T02:21:43.661Z,98.30
2022-10-29T02:22:43.770Z,98.70
2022-10-29T02:23:43.650Z,98.30
2022-10-29T02:24:43.656Z,98.30
2022-10-29T02:25:43.716Z,98.19
2022-10-29T02:26:43.625Z,98.91
2022-10-29T02:27:43.656Z,98.50
2022-10-29T02:28:43.579Z,98.80
2022-10-29T02:29:43.588Z,98.70
2022-10-29T02:30:43.549Z,98.80
2022-10-29T02:31:43.564Z,97.38
2022-10-29T02:32:43.538Z,95.91
2022-10-29T02:33:43.569Z,95.70
2022-10-29T02:34:43.560Z,95.70
2022-10-29T02:35:43.503Z,96.17
2022-10-29T02:36:43.508Z,95.81
2022-10-29T02:37:43.571Z,96.83
2022-10-29T02:38:43.499Z,97.03
2022-10-29T02:39:43.471Z,94.95
2022-10-29T02:40:43.514Z,95.50
2022-10-29T02:41:43.452Z,93.67
2022-10-29T02:42:43.465Z,92.10
2022-10-29T02:43:43.466Z,91.05
2022-10-29T02:44:43.440Z,92.16
2022-10-29T02:45:43.387Z,88.87
2022-10-29T02:46:43.453Z,89.23
2022-10-29T02:47:43.381Z,89.94
2022-10-29T02:48:43.389Z,90.35
2022-10-29T02:49:43.347Z,90.49
2022-10-29T02:50:43.381Z,90.59
2022-10-29T02:51:43.341Z,91.10
2022-10-29T02:52:43.369Z,91.05
2022-10-29T02:53:43.343Z,91.35
2022-10-29T02:54:43.297Z,92.16
2022-10-29T02:55:43.324Z,92.61
2022-10-29T02:56:43.357Z,93.37
2022-10-29T02:57:43.276Z,93.77
2022-10-29T02:58:43.295Z,93.67
2022-10-29T02:59:43.289Z,91.43
2022-10-29T03:00:43.315Z,89.22
2022-10-29T03:01:43.370Z,87.65
2022-10-29T03:02:43.351Z,86.69
2022-10-29T03:03:43.199Z,85.64
2022-10-29T03:04:43.228Z,84.58
2022-10-29T03:05:48.072Z,83.94
2022-10-29T03:06:44.184Z,85.50
2022-10-29T03:07:43.150Z,85.60
2022-10-29T03:08:43.178Z,85.84
2022-10-29T03:09:43.179Z,86.15
2022-10-29T03:10:43.117Z,87.30
2022-10-29T03:11:43.109Z,88.36
2022-10-29T03:12:43.117Z,87.55
2022-10-29T03:13:43.229Z,87.55
2022-10-29T03:14:43.138Z,87.04
2022-10-29T03:15:43.097Z,87.81
2022-10-29T03:16:43.101Z,86.49
2022-10-29T03:17:43.075Z,84.93
2022-10-29T03:18:43.032Z,83.47
2022-10-29T03:19:43.039Z,83.12
2022-10-29T03:20:43.020Z,83.83
2022-10-29T03:21:43.070Z,83.53
2022-10-29T03:22:43.023Z,82.31
2022-10-29T03:23:43.005Z,82.01
2022-10-29T03:24:43.039Z,82.07
2022-10-29T03:25:42.960Z,81.97
2022-10-29T03:26:42.959Z,81.67
2022-10-29T03:27:42.949Z,80.31
2022-10-29T03:28:42.993Z,80.58
2022-10-29T03:29:42.952Z,80.38
2022-10-29T03:30:42.922Z,79.80
2022-10-29T03:31:42.931Z,79.87
2022-10-29T03:32:42.875Z,79.87
2022-10-29T03:33:42.873Z,80.38
2022-10-29T03:34:42.902Z,81.43
2022-10-29T03:35:42.984Z,80.41
2022-10-29T03:36:42.861Z,80.41
2022-10-29T03:37:42.843Z,82.44
2022-10-29T03:38:42.809Z,84.18
2022-10-29T03:39:42.826Z,83.67
2022-10-29T03:40:42.857Z,81.16
2022-10-29T03:41:42.843Z,81.87
2022-10-29T03:42:42.798Z,81.83
2022-10-29T03:43:42.845Z,82.89
2022-10-29T03:44:42.758Z,84.34
2022-10-29T03:45:42.736Z,85.44
2022-10-29T03:46:42.760Z,85.98
2022-10-29T03:47:42.768Z,86.80
2022-10-29T03:48:42.746Z,88.36
2022-10-29T03:49:42.693Z,89.83
2022-10-29T03:50:42.712Z,90.53
2022-10-29T03:51:42.692Z,90.58
2022-10-29T03:52:42.672Z,90.37
2022-10-29T03:53:42.672Z,92.45
2022-10-29T03:54:42.639Z,92.86
2022-10-29T03:55:42.664Z,93.41
2022-10-29T03:56:42.634Z,93.82
2022-10-29T03:57:42.688Z,94.57
2022-10-29T03:58:42.625Z,95.03
2022-10-29T03:59:44.095Z,95.74
2022-10-29T04:00:42.591Z,96.45
2022-10-29T04:01:42.734Z,96.80
2022-10-29T04:02:42.814Z,96.91
2022-10-29T04:03:42.660Z,96.80
2022-10-29T04:04:42.597Z,97.11
2022-10-29T04:05:42.585Z,97.41
2022-10-29T04:06:42.577Z,97.52
2022-10-29T04:07:42.588Z,97.66
2022-10-29T04:08:42.499Z,98.48
2022-10-29T04:09:42.537Z,98.73
2022-10-29T04:10:42.518Z,99.14
2022-10-29T04:11:42.462Z,99.44
2022-10-29T04:12:42.480Z,99.99
2022-10-29T04:13:42.451Z,99.75
2022-10-29T04:14:45.422Z,99.95
2022-10-29T04:15:42.410Z,99.99
2022-10-29T04:16:42.428Z,99.99
2022-10-29T04:17:42.401Z,99.99
2022-10-29T04:18:42.444Z,99.99
2022-10-29T04:19:42.441Z,99.99
2022-10-29T04:21:31.233Z,99.99
2022-10-29T04:28:41.197Z,99.99
2022-10-29T04:28:44.160Z,99.99
2022-10-29T04:29:42.269Z,99.99
2022-10-29T04:30:42.281Z,99.99
2022-10-29T04:31:42.237Z,99.99
2022-10-29T04:32:42.247Z,99.99
2022-10-29T04:33:42.265Z,99.99
2022-10-29T04:34:42.217Z,99.99
2022-10-29T04:35:42.213Z,99.99
2022-10-29T04:36:42.182Z,99.99
2022-10-29T04:37:42.168Z,98.07
2022-10-29T04:38:42.177Z,97.41
2022-10-29T04:39:42.149Z,96.86
2022-10-29T04:40:42.134Z,95.59
2022-10-29T04:41:42.252Z,95.84
2022-10-29T04:42:42.115Z,95.03
2022-10-29T04:43:42.124Z,94.97
2022-10-29T04:44:42.124Z,95.78
2022-10-29T04:46:42.064Z,96.44
2022-10-29T04:47:42.096Z,96.38
2022-10-29T04:48:42.129Z,97.50
2022-10-29T04:49:42.028Z,97.00
2022-10-29T04:50:42.020Z,97.34
2022-10-29T04:51:42.024Z,98.72
2022-10-29T04:52:42.004Z,98.61
2022-10-29T04:53:42.067Z,99.54
2022-10-29T04:54:41.988Z,99.58
2022-10-29T04:55:42.027Z,99.99
2022-10-29T04:56:41.978Z,99.99
2022-10-29T04:57:42.077Z,99.99
2022-10-29T04:58:41.948Z,99.99
2022-10-29T04:59:41.932Z,99.99
2022-10-29T05:00:42.009Z,99.99
2022-10-29T05:01:41.928Z,99.89
2022-10-29T05:02:41.931Z,99.99
2022-10-29T05:03:41.902Z,99.99
2022-10-29T05:04:41.871Z,99.99
2022-10-29T05:05:41.852Z,99.99
2022-10-29T05:06:41.900Z,99.99
2022-10-29T05:07:41.873Z,99.99
2022-10-29T05:08:41.865Z,99.99
2022-10-29T05:09:41.818Z,99.99
2022-10-29T05:10:41.805Z,99.99
2022-10-29T05:11:41.808Z,99.99
2022-10-29T05:12:41.796Z,99.99
2022-10-29T05:13:41.783Z,99.99
2022-10-29T05:14:41.838Z,99.99
2022-10-29T05:15:41.752Z,99.68
2022-10-29T05:16:41.793Z,98.57
2022-10-29T05:17:41.797Z,96.89
2022-10-29T05:18:41.770Z,96.34
2022-10-29T05:19:41.724Z,94.97
2022-10-29T05:20:41.752Z,94.01
2022-10-29T05:21:41.703Z,94.05
2022-10-29T05:22:41.703Z,94.01
2022-10-29T05:23:41.673Z,93.50
2022-10-29T05:24:41.686Z,93.80
2022-10-29T05:25:41.653Z,93.50
2022-10-29T05:26:41.635Z,93.70
2022-10-29T05:27:41.619Z,93.70
2022-10-29T05:28:41.677Z,93.85
2022-10-29T05:29:41.619Z,94.35
2022-10-29T05:30:41.763Z,94.50
2022-10-29T05:31:41.587Z,95.21
2022-10-29T05:32:41.598Z,95.21
2022-10-29T05:33:41.564Z,93.19
2022-10-29T05:34:44.449Z,92.89
2022-10-29T05:35:41.532Z,93.29
2022-10-29T05:36:41.532Z,93.70
2022-10-29T05:37:41.509Z,93.13
2022-10-29T05:38:41.578Z,93.85
2022-10-29T05:39:41.497Z,93.85
2022-10-29T05:40:41.475Z,94.76
2022-10-29T05:41:41.504Z,94.40
2022-10-29T05:42:46.383Z,94.50
2022-10-29T05:43:42.504Z,93.95
2022-10-29T05:44:41.437Z,93.29
2022-10-29T05:45:41.451Z,93.03
2022-10-29T05:46:41.401Z,93.54
2022-10-29T05:47:41.402Z,93.69
2022-10-29T05:48:41.499Z,93.74
2022-10-29T05:49:41.385Z,94.30
2022-10-29T05:50:41.396Z,94.40
2022-10-29T05:51:41.422Z,94.60
2022-10-29T05:52:41.345Z,93.03
2022-10-29T05:53:41.502Z,92.33
2022-10-29T05:54:41.370Z,89.95
2022-10-29T05:55:41.377Z,89.36
2022-10-29T05:56:41.330Z,88.60
2022-10-29T05:57:41.305Z,87.79
2022-10-29T05:58:41.383Z,88.87
2022-10-29T05:59:41.283Z,89.22
2022-10-29T06:00:41.305Z,89.31
2022-10-29T06:01:41.415Z,89.40
2022-10-29T06:02:41.339Z,90.01
2022-10-29T06:03:41.313Z,91.42
2022-10-29T06:04:41.272Z,92.33
2022-10-29T06:05:41.239Z,92.99
2022-10-29T06:06:41.320Z,93.54
2022-10-29T06:07:43.202Z,94.20
2022-10-29T06:08:41.232Z,94.40
2022-10-29T06:09:41.195Z,94.91
2022-10-29T06:10:41.178Z,95.67
2022-10-29T06:11:41.155Z,96.22
2022-10-29T06:12:41.116Z,96.33
2022-10-29T06:13:41.183Z,97.39
2022-10-29T06:14:41.183Z,97.29
2022-10-29T06:15:41.142Z,97.13
2022-10-29T06:16:41.076Z,98.56
2022-10-29T06:17:41.114Z,98.66
2022-10-29T06:18:41.074Z,98.86
2022-10-29T06:20:41.111Z,99.27
2022-10-29T06:21:41.018Z,99.58
2022-10-29T06:22:41.014Z,99.73
2022-10-29T06:23:41.102Z,99.73
2022-10-29T06:24:41.036Z,99.99
2022-10-29T06:25:41.065Z,99.99
2022-10-29T06:26:40.969Z,99.99
2022-10-29T06:27:41.025Z,99.99
2022-10-29T06:28:41.024Z,99.99
2022-10-29T06:29:40.960Z,99.99
2022-10-29T06:30:40.953Z,99.99
2022-10-29T06:31:40.914Z,99.99
2022-10-29T06:32:40.901Z,99.99
2022-10-29T06:33:40.978Z,99.99
2022-10-29T06:34:40.975Z,99.99
2022-10-29T06:35:40.865Z,99.99
2022-10-29T06:36:40.873Z,99.99
2022-10-29T06:37:40.858Z,99.99
2022-10-29T06:38:40.875Z,99.99
2022-10-29T06:39:40.827Z,99.99
2022-10-29T06:40:40.896Z,99.99
2022-10-29T06:41:40.867Z,99.99
2022-10-29T06:42:40.905Z,99.99
2022-10-29T06:43:40.894Z,99.99
2022-10-29T06:44:40.803Z,99.99
2022-10-29T06:45:40.794Z,99.99
2022-10-29T06:46:40.746Z,99.99
2022-10-29T06:47:40.786Z,99.99
2022-10-29T06:48:40.786Z,99.99
2022-10-29T06:49:40.754Z,99.99
2022-10-29T06:50:40.741Z,99.99
2022-10-29T06:51:40.744Z,99.99
2022-10-29T06:52:40.690Z,99.99
2022-10-29T06:53:40.728Z,99.99
2022-10-29T06:54:40.754Z,99.99
2022-10-29T06:55:40.716Z,99.99
2022-10-29T06:56:40.636Z,99.99
2022-10-29T06:57:40.634Z,99.99
2022-10-29T06:58:40.714Z,99.99
2022-10-29T06:59:40.626Z,99.99
2022-10-29T07:00:40.679Z,99.99
2022-10-29T07:01:40.653Z,99.99
2022-10-29T07:02:40.626Z,99.54
2022-10-29T07:03:40.650Z,99.95
2022-10-29T07:04:40.567Z,99.99
2022-10-29T07:05:40.686Z,99.75
2022-10-29T07:06:40.566Z,99.50
2022-10-29T07:07:40.531Z,99.99
2022-10-29T07:08:40.685Z,99.99
2022-10-29T07:09:40.496Z,99.99
2022-10-29T07:10:40.518Z,99.91
2022-10-29T07:11:40.568Z,99.99
2022-10-29T07:12:40.463Z,99.45
2022-10-29T07:13:40.594Z,98.43
2022-10-29T07:14:40.451Z,98.64
2022-10-29T07:15:40.447Z,98.14
2022-10-29T07:16:40.479Z,97.93
2022-10-29T07:17:40.399Z,97.17
2022-10-29T07:18:40.440Z,96.22
2022-10-29T07:19:40.496Z,95.81
2022-10-29T07:20:40.473Z,95.66
2022-10-29T07:21:40.378Z,95.51
2022-10-29T07:22:40.353Z,96.34
2022-10-29T07:23:40.408Z,92.89
2022-10-29T07:24:40.405Z,92.07
2022-10-29T07:25:40.318Z,90.41
2022-10-29T07:26:40.442Z,88.75
2022-10-29T07:27:40.400Z,88.15
2022-10-29T07:28:40.302Z,86.85
2022-10-29T07:29:40.401Z,83.92
2022-10-29T07:30:40.308Z,85.90
2022-10-29T07:31:40.299Z,85.76
2022-10-29T07:32:40.273Z,82.28
2022-10-29T07:33:40.333Z,81.84
2022-10-29T07:34:40.247Z,81.30
2022-10-29T07:35:40.237Z,80.08
2022-10-29T07:36:40.229Z,80.05
2022-10-29T07:37:40.179Z,78.80
2022-10-29T07:38:40.421Z,78.56
2022-10-29T07:39:40.195Z,77.45
2022-10-29T07:40:40.174Z,78.06
2022-10-29T07:41:40.204Z,78.06
2022-10-29T07:42:40.135Z,78.32
2022-10-29T07:43:40.251Z,77.82
2022-10-29T07:44:40.169Z,77.72
2022-10-29T07:45:40.152Z,78.72
2022-10-29T07:46:40.087Z,77.95
2022-10-29T07:47:40.098Z,78.59
2022-10-29T07:48:40.124Z,79.21
2022-10-29T07:49:40.111Z,78.83
2022-10-29T07:50:40.093Z,77.78
2022-10-29T07:51:40.058Z,77.72
2022-10-29T07:52:40.051Z,78.66
2022-10-29T07:53:40.018Z,78.36
2022-10-29T07:54:40.054Z,77.58
2022-10-29T07:55:39.988Z,76.97
2022-10-29T07:56:42.399Z,78.02
2022-10-29T07:57:41.034Z,76.71
2022-10-29T07:58:39.980Z,75.50
2022-10-29T07:59:40.001Z,75.16
2022-10-29T08:00:40.036Z,76.77
2022-10-29T08:01:40.065Z,76.07
2022-10-29T08:02:39.933Z,75.43
2022-10-29T08:03:39.940Z,74.79
2022-10-29T08:04:39.929Z,75.82
2022-10-29T08:05:42.551Z,73.58
2022-10-29T08:06:39.895Z,72.77
2022-10-29T08:07:39.858Z,74.38
2022-10-29T08:08:39.905Z,78.27
2022-10-29T08:09:39.834Z,77.02
2022-10-29T08:10:39.829Z,77.65
2022-10-29T08:11:39.861Z,77.11
2022-10-29T08:12:39.816Z,76.37
2022-10-29T08:13:39.823Z,74.17
2022-10-29T08:14:39.832Z,73.93
2022-10-29T08:15:39.803Z,73.50
2022-10-29T08:16:39.785Z,74.50
2022-10-29T08:17:39.746Z,73.26
2022-10-29T08:18:39.785Z,72.53
2022-10-29T08:19:39.743Z,71.66
2022-10-29T08:20:39.822Z,70.96
2022-10-29T08:21:39.729Z,70.19
2022-10-29T08:22:39.746Z,71.59
2022-10-29T08:23:39.706Z,73.53
2022-10-29T08:24:39.701Z,74.90
2022-10-29T08:25:39.676Z,75.06
2022-10-29T08:26:39.706Z,73.33
2022-10-29T08:27:39.741Z,72.42
2022-10-29T08:28:39.646Z,71.16
2022-10-29T08:29:39.644Z,73.39
2022-10-29T08:30:39.603Z,72.56
2022-10-29T08:31:39.669Z,71.73
2022-10-29T08:32:39.586Z,71.49
2022-10-29T08:33:39.588Z,71.16
2022-10-29T08:34:39.692Z,69.86
2022-10-29T08:35:39.589Z,72.86
2022-10-29T08:36:39.549Z,74.82
2022-10-29T08:37:39.530Z,71.49
2022-10-29T08:38:39.581Z,70.42
2022-10-29T08:39:39.506Z,70.03
2022-10-29T08:40:39.511Z,68.89
2022-10-29T08:41:39.530Z,70.39
2022-10-29T08:42:39.481Z,71.52
2022-10-29T08:43:44.566Z,69.93
2022-10-29T08:44:40.530Z,72.62
2022-10-29T08:45:39.482Z,70.76
2022-10-29T08:46:39.429Z,71.46
2022-10-29T08:47:39.414Z,70.76
2022-10-29T08:48:39.459Z,71.46
2022-10-29T08:49:39.397Z,72.09
2022-10-29T08:50:39.492Z,70.32
2022-10-29T08:51:39.429Z,70.83
2022-10-29T08:52:48.203Z,73.90
2022-10-29T08:53:40.447Z,73.56
2022-10-29T08:54:39.421Z,71.73
2022-10-29T08:55:39.355Z,71.49
2022-10-29T08:56:39.322Z,72.32
2022-10-29T08:57:39.369Z,70.12
2022-10-29T08:58:39.380Z,69.49
2022-10-29T08:59:39.292Z,69.73
2022-10-29T09:00:39.344Z,68.93
2022-10-29T09:01:39.446Z,70.72
2022-10-29T09:02:39.295Z,69.96
2022-10-29T09:03:39.269Z,70.36
2022-10-29T09:04:39.275Z,70.19
2022-10-29T09:05:39.237Z,73.03
2022-10-29T09:06:39.479Z,71.69
2022-10-29T09:07:39.366Z,71.36
2022-10-29T09:08:39.298Z,74.12
2022-10-29T09:09:39.225Z,71.69
2022-10-29T09:10:39.164Z,69.82
2022-10-29T09:11:39.150Z,68.26
2022-10-29T09:12:39.155Z,69.79
2022-10-29T09:13:39.237Z,68.43
2022-10-29T09:14:39.190Z,69.73
2022-10-29T09:15:39.118Z,69.53
2022-10-29T09:17:39.084Z,71.39
2022-10-29T09:18:39.119Z,68.86
2022-10-29T09:19:39.124Z,69.86
2022-10-29T09:20:39.106Z,67.80
2022-10-29T09:21:39.073Z,67.63
2022-10-29T09:22:39.088Z,69.59
2022-10-29T09:23:39.063Z,68.60
2022-10-29T09:24:39.009Z,66.97
2022-10-29T09:25:39.063Z,67.37
2022-10-29T09:26:38.985Z,64.94
2022-10-29T09:27:39.015Z,69.49
2022-10-29T09:28:38.980Z,66.57
2022-10-29T09:29:38.984Z,67.80
2022-10-29T09:30:39.245Z,67.77
2022-10-29T09:31:38.970Z,65.01
2022-10-29T09:32:39.004Z,67.67
2022-10-29T09:33:39.014Z,66.38
2022-10-29T09:34:38.969Z,66.38
2022-10-29T09:35:39.079Z,65.34
2022-10-29T09:36:38.957Z,67.07
2022-10-29T09:37:38.913Z,67.66
2022-10-29T09:38:38.995Z,67.90
2022-10-29T09:39:38.901Z,66.27
2022-10-29T09:40:39.048Z,66.47
2022-10-29T09:41:38.834Z,64.28
2022-10-29T09:42:38.936Z,64.22
2022-10-29T09:43:38.837Z,63.34
2022-10-29T09:44:38.909Z,62.64
2022-10-29T09:45:38.912Z,63.07
2022-10-29T09:46:38.768Z,62.70
2022-10-29T09:47:38.812Z,64.58
2022-10-29T09:48:38.782Z,64.75
2022-10-29T09:49:38.808Z,64.94
2022-10-29T09:50:38.738Z,68.26
2022-10-29T09:51:38.996Z,67.70
2022-10-29T09:52:38.784Z,66.35
2022-10-29T09:53:38.883Z,66.28
2022-10-29T09:54:38.720Z,66.44
2022-10-29T09:55:38.695Z,64.19
2022-10-29T09:56:38.680Z,65.28
2022-10-29T09:57:38.765Z,64.72
2022-10-29T09:58:38.703Z,64.59
2022-10-29T09:59:38.744Z,66.35
2022-10-29T10:00:38.646Z,63.60
2022-10-29T10:01:38.717Z,65.53
2022-10-29T10:02:38.679Z,62.23
2022-10-29T10:03:38.684Z,60.57
2022-10-29T10:04:38.580Z,61.22
2022-10-29T10:05:38.584Z,64.79
2022-10-29T10:06:40.620Z,61.86
2022-10-29T10:07:38.540Z,61.07
2022-10-29T10:08:38.851Z,60.99
2022-10-29T10:09:38.582Z,65.89
2022-10-29T10:10:38.589Z,64.31
2022-10-29T10:11:38.680Z,63.21
2022-10-29T10:12:38.506Z,63.15
2022-10-29T10:13:38.534Z,64.83
2022-10-29T10:14:38.565Z,62.78
2022-10-29T10:15:38.514Z,63.51
2022-10-29T10:16:38.569Z,66.22
2022-10-29T10:17:38.476Z,65.55
2022-10-29T10:18:38.565Z,66.02
2022-10-29T10:19:38.431Z,62.54
2022-10-29T10:20:38.519Z,61.65
2022-10-29T10:21:38.405Z,63.40
2022-10-29T10:22:38.394Z,63.48
2022-10-29T10:23:38.397Z,62.72
2022-10-29T10:24:38.441Z,64.34
2022-10-29T10:25:38.396Z,63.97
2022-10-29T10:26:38.469Z,62.38
2022-10-29T10:27:38.344Z,63.08
2022-10-29T10:28:38.356Z,63.45
2022-10-29T10:29:38.333Z,67.44
2022-10-29T10:30:38.305Z,62.98
2022-10-29T10:31:38.307Z,64.96
2022-10-29T10:32:38.435Z,64.40
2022-10-29T10:33:38.327Z,64.47
2022-10-29T10:34:38.323Z,66.75
2022-10-29T10:35:38.333Z,61.60
2022-10-29T10:36:38.289Z,62.79
2022-10-29T10:37:38.374Z,63.12
2022-10-29T10:38:38.417Z,63.12
2022-10-29T10:39:38.248Z,60.94
2022-10-29T10:40:38.259Z,59.72
2022-10-29T10:41:38.277Z,60.45
2022-10-29T10:42:38.203Z,60.58
2022-10-29T10:43:38.271Z,60.61
2022-10-29T10:44:38.225Z,61.07
2022-10-29T10:45:38.145Z,63.94
2022-10-29T10:46:38.195Z,63.21
2022-10-29T10:47:38.122Z,59.58
2022-10-29T10:48:38.152Z,61.25
2022-10-29T10:49:38.142Z,62.71
2022-10-29T10:50:38.120Z,60.60
2022-10-29T10:51:38.212Z,59.41
2022-10-29T10:52:38.087Z,61.19
2022-10-29T10:53:38.116Z,61.07
2022-10-29T10:54:38.183Z,62.78
2022-10-29T10:55:38.062Z,62.35
2022-10-29T10:56:38.148Z,62.08
2022-10-29T10:57:38.039Z,64.47
2022-10-29T10:58:38.039Z,60.46
2022-10-29T10:59:38.006Z,62.15
2022-10-29T11:00:38.071Z,65.56
2022-10-29T11:01:38.236Z,63.31
2022-10-29T11:02:38.022Z,60.86
2022-10-29T11:03:38.012Z,63.12
2022-10-29T11:04:38.046Z,64.17
2022-10-29T11:05:37.929Z,62.98
2022-10-29T11:06:37.932Z,61.93
2022-10-29T11:07:37.947Z,61.13
2022-10-29T11:08:37.932Z,61.46
2022-10-29T11:09:39.001Z,62.55
2022-10-29T11:10:37.907Z,63.71
2022-10-29T11:11:37.928Z,60.14
2022-10-29T11:12:37.867Z,60.71
2022-10-29T11:13:37.924Z,60.94
2022-10-29T11:14:37.859Z,64.67
2022-10-29T11:15:37.902Z,62.78
2022-10-29T11:16:37.855Z,64.83
2022-10-29T11:17:37.892Z,62.29
2022-10-29T11:18:37.900Z,63.74
2022-10-29T11:19:37.787Z,63.31
2022-10-29T11:20:38.007Z,61.29
2022-10-29T11:21:37.886Z,64.73
2022-10-29T11:22:37.752Z,66.35
2022-10-29T11:23:37.760Z,64.26
2022-10-29T11:24:37.857Z,65.22
2022-10-29T11:25:37.757Z,63.24
2022-10-29T11:26:37.743Z,62.87
2022-10-29T11:27:37.857Z,63.31
2022-10-29T11:28:37.747Z,63.97
2022-10-29T11:29:37.716Z,61.32
2022-10-29T11:30:37.731Z,62.61
2022-10-29T11:31:37.779Z,64.76
2022-10-29T11:32:37.670Z,62.85
2022-10-29T11:33:37.693Z,62.85
2022-10-29T11:34:37.648Z,63.94
2022-10-29T11:35:37.644Z,62.95
2022-10-29T11:36:37.646Z,63.64
2022-10-29T11:37:37.602Z,64.83
2022-10-29T11:38:37.727Z,61.93
2022-10-29T11:39:37.622Z,62.59
2022-10-29T11:40:39.103Z,62.56
2022-10-29T11:41:37.680Z,62.63
2022-10-29T11:42:37.556Z,63.09
2022-10-29T11:43:37.568Z,61.08
2022-10-29T11:44:37.646Z,59.83
2022-10-29T11:45:37.568Z,60.94
2022-10-29T11:46:38.062Z,60.22
2022-10-29T11:47:37.512Z,61.11
2022-10-29T11:48:37.490Z,63.89
2022-10-29T11:49:37.504Z,62.87
2022-10-29T11:50:37.487Z,60.53
2022-10-29T11:51:37.569Z,61.82
2022-10-29T11:52:37.479Z,61.16
2022-10-29T11:53:37.474Z,63.03
2022-10-29T11:54:37.440Z,59.77
2022-10-29T11:55:37.654Z,60.76
2022-10-29T11:56:37.431Z,62.01
2022-10-29T11:57:37.418Z,60.07
2022-10-29T11:58:40.547Z,62.12
2022-10-29T11:59:37.371Z,60.33
2022-10-29T12:00:37.362Z,59.98
2022-10-29T12:01:37.548Z,58.47
2022-10-29T12:02:37.364Z,58.08
2022-10-29T12:03:37.423Z,58.57
2022-10-29T12:04:37.393Z,58.15
2022-10-29T12:05:37.674Z,61.72
2022-10-29T12:06:37.438Z,60.18
2022-10-29T12:07:37.297Z,61.76
2022-10-29T12:08:37.478Z,62.57
2022-10-29T12:09:37.290Z,61.08
2022-10-29T12:10:37.295Z,63.02
2022-10-29T12:11:42.928Z,63.25
2022-10-29T12:12:38.281Z,67.24
2022-10-29T12:13:37.261Z,67.41
2022-10-29T12:14:37.219Z,65.76
2022-10-29T12:15:37.246Z,65.49
2022-10-29T12:16:37.204Z,69.85
2022-10-29T12:17:37.208Z,68.27
2022-10-29T12:18:37.278Z,70.65
2022-10-29T12:19:37.161Z,67.57
2022-10-29T12:20:37.185Z,67.11
2022-10-29T12:21:37.147Z,67.01
2022-10-29T12:22:37.186Z,66.85
2022-10-29T12:23:37.138Z,67.14
2022-10-29T12:24:37.128Z,69.13
2022-10-29T12:25:37.079Z,68.86
2022-10-29T12:26:37.126Z,69.06
2022-10-29T12:27:37.135Z,67.57
2022-10-29T12:28:37.102Z,71.14
2022-10-29T12:29:37.062Z,67.97
2022-10-29T12:30:37.023Z,68.17
2022-10-29T12:31:37.004Z,68.96
2022-10-29T12:32:37.024Z,67.74
2022-10-29T12:33:37.040Z,69.82
2022-10-29T12:34:36.968Z,68.70
2022-10-29T12:35:36.975Z,67.90
2022-10-29T12:36:36.987Z,66.22
2022-10-29T12:37:36.947Z,67.90
2022-10-29T12:38:36.967Z,67.38
2022-10-29T12:39:36.950Z,67.44
2022-10-29T12:40:37.097Z,69.13
2022-10-29T12:41:36.981Z,66.95
2022-10-29T12:42:36.910Z,66.72
2022-10-29T12:43:37.194Z,67.21
2022-10-29T12:44:39.966Z,67.31
2022-10-29T12:45:53.026Z,67.61
2022-10-29T12:46:37.914Z,65.95
2022-10-29T12:47:36.858Z,67.44
2022-10-29T12:48:36.905Z,67.05
2022-10-29T12:49:36.895Z,66.55
2022-10-29T12:50:36.840Z,65.06
2022-10-29T12:51:36.834Z,65.36
2022-10-29T12:52:36.823Z,64.37
2022-10-29T12:53:36.857Z,66.06
2022-10-29T12:54:36.791Z,66.22
2022-10-29T12:55:36.777Z,65.43
2022-10-29T12:56:36.770Z,65.95
2022-10-29T12:57:36.823Z,66.42
2022-10-29T12:58:36.855Z,67.18
2022-10-29T12:59:36.753Z,65.99
2022-10-29T13:00:36.809Z,64.34
2022-10-29T13:02:05.382Z,64.24
2022-10-29T13:02:37.850Z,65.33
2022-10-29T13:03:42.166Z,64.31
2022-10-29T13:04:37.679Z,64.93
2022-10-29T13:05:36.665Z,66.68
2022-10-29T13:06:36.654Z,64.77